sensor_id;sensor_type;location;lat;lon;timestamp;pressure;altitude;pressure_sealevel;temperature;humidity
27144;BME280;14672;50.250;8.312;2022-10-16T00:01:21;98506.94;;;17.72;75.49
27144;BME280;14672;50.250;8.312;2022-10-16T00:03:49;98509.78;;;17.66;74.96
27144;BME280;14672;50.250;8.312;2022-10-16T00:06:17;98504.31;;;17.68;76.01
27144;BME280;14672;50.250;8.312;2022-10-16T00:08:44;98493.31;;;17.61;76.75
27144;BME280;14672;50.250;8.312;2022-10-16T00:11:20;98500.34;;;17.60;77.04
27144;BME280;14672;50.250;8.312;2022-10-16T00:13:49;98491.78;;;17.66;77.07
27144;BME280;14672;50.250;8.312;2022-10-16T00:16:16;98494.59;;;17.60;77.44
27144;BME280;14672;50.250;8.312;2022-10-16T00:18:43;98493.59;;;17.63;77.83
27144;BME280;14672;50.250;8.312;2022-10-16T00:21:16;98505.84;;;17.64;77.35
27144;BME280;14672;50.250;8.312;2022-10-16T00:23:44;98501.69;;;17.59;77.67
27144;BME280;14672;50.250;8.312;2022-10-16T00:26:13;98499.53;;;17.54;78.18
27144;BME280;14672;50.250;8.312;2022-10-16T00:28:40;98505.88;;;17.69;77.68
27144;BME280;14672;50.250;8.312;2022-10-16T00:31:09;98492.31;;;17.70;77.61
27144;BME280;14672;50.250;8.312;2022-10-16T00:33:37;98494.13;;;17.73;77.25
27144;BME280;14672;50.250;8.312;2022-10-16T00:36:05;98500.38;;;17.66;77.62
27144;BME280;14672;50.250;8.312;2022-10-16T00:38:32;98501.97;;;17.72;76.77
27144;BME280;14672;50.250;8.312;2022-10-16T00:40:58;98514.25;;;17.73;77.50
27144;BME280;14672;50.250;8.312;2022-10-16T00:43:41;98502.50;;;17.76;77.36
27144;BME280;14672;50.250;8.312;2022-10-16T00:51:28;98503.84;;;17.81;76.10
27144;BME280;14672;50.250;8.312;2022-10-16T00:53:56;98504.13;;;17.83;76.38
27144;BME280;14672;50.250;8.312;2022-10-16T00:56:22;98503.03;;;17.80;76.20
27144;BME280;14672;50.250;8.312;2022-10-16T00:58:48;98515.88;;;17.85;76.44
27144;BME280;14672;50.250;8.312;2022-10-16T01:01:14;98523.69;;;17.84;76.53
27144;BME280;14672;50.250;8.312;2022-10-16T01:03:40;98515.59;;;17.89;76.46
27144;BME280;14672;50.250;8.312;2022-10-16T01:15:13;98529.47;;;17.96;76.40
27144;BME280;14672;50.250;8.312;2022-10-16T01:17:53;98539.16;;;17.93;77.07
27144;BME280;14672;50.250;8.312;2022-10-16T01:20:31;98531.59;;;17.95;77.15
27144;BME280;14672;50.250;8.312;2022-10-16T01:28:16;98529.25;;;17.99;76.87
27144;BME280;14672;50.250;8.312;2022-10-16T01:30:45;98531.88;;;18.03;76.44
27144;BME280;14672;50.250;8.312;2022-10-16T01:33:21;98533.41;;;18.04;76.62
27144;BME280;14672;50.250;8.312;2022-10-16T01:35:54;98529.25;;;18.05;76.32
27144;BME280;14672;50.250;8.312;2022-10-16T01:38:34;98531.63;;;18.06;76.19
27144;BME280;14672;50.250;8.312;2022-10-16T01:41:12;98526.91;;;18.09;76.14
27144;BME280;14672;50.250;8.312;2022-10-16T01:44:05;98526.66;;;18.07;77.02
27144;BME280;14672;50.250;8.312;2022-10-16T01:46:36;98519.59;;;18.08;76.63
27144;BME280;14672;50.250;8.312;2022-10-16T01:49:03;98518.03;;;18.07;76.07
27144;BME280;14672;50.250;8.312;2022-10-16T01:51:31;98511.50;;;18.12;75.67
27144;BME280;14672;50.250;8.312;2022-10-16T01:54:00;98525.88;;;18.12;76.44
27144;BME280;14672;50.250;8.312;2022-10-16T01:56:27;98527.19;;;18.11;76.28
27144;BME280;14672;50.250;8.312;2022-10-16T01:59:06;98526.16;;;18.14;76.77
27144;BME280;14672;50.250;8.312;2022-10-16T02:01:35;98535.28;;;18.12;76.22
27144;BME280;14672;50.250;8.312;2022-10-16T02:04:12;98536.06;;;18.13;76.46
27144;BME280;14672;50.250;8.312;2022-10-16T02:06:40;98538.94;;;18.13;76.15
27144;BME280;14672;50.250;8.312;2022-10-16T02:09:06;98541.56;;;18.11;76.38
27144;BME280;14672;50.250;8.312;2022-10-16T02:11:31;98539.72;;;18.08;76.85
27144;BME280;14672;50.250;8.312;2022-10-16T02:14:07;98538.19;;;18.18;76.69
27144;BME280;14672;50.250;8.312;2022-10-16T02:16:43;98530.06;;;18.11;77.33
27144;BME280;14672;50.250;8.312;2022-10-16T02:19:09;98537.66;;;18.14;76.67
27144;BME280;14672;50.250;8.312;2022-10-16T02:21:55;98535.56;;;18.14;76.97
27144;BME280;14672;50.250;8.312;2022-10-16T02:24:35;98539.75;;;18.19;76.58
27144;BME280;14672;50.250;8.312;2022-10-16T02:27:19;98537.13;;;18.21;76.05
27144;BME280;14672;50.250;8.312;2022-10-16T02:30:14;98534.00;;;18.19;76.56
27144;BME280;14672;50.250;8.312;2022-10-16T02:32:45;98542.63;;;18.24;75.93
27144;BME280;14672;50.250;8.312;2022-10-16T02:35:12;98526.97;;;18.25;75.70
27144;BME280;14672;50.250;8.312;2022-10-16T02:37:40;98536.34;;;18.20;75.85
27144;BME280;14672;50.250;8.312;2022-10-16T02:40:08;98550.97;;;18.17;75.92
27144;BME280;14672;50.250;8.312;2022-10-16T02:42:36;98561.72;;;18.22;76.28
27144;BME280;14672;50.250;8.312;2022-10-16T02:45:04;98553.84;;;18.17;76.55
27144;BME280;14672;50.250;8.312;2022-10-16T02:47:30;98557.78;;;18.19;76.83
27144;BME280;14672;50.250;8.312;2022-10-16T02:49:55;98559.09;;;18.18;76.86
27144;BME280;14672;50.250;8.312;2022-10-16T02:52:21;98570.34;;;18.22;76.54
27144;BME280;14672;50.250;8.312;2022-10-16T02:54:47;98578.44;;;18.18;76.63
27144;BME280;14672;50.250;8.312;2022-10-16T02:57:13;98584.19;;;18.18;77.08
27144;BME280;14672;50.250;8.312;2022-10-16T02:59:39;98589.94;;;18.18;76.48
27144;BME280;14672;50.250;8.312;2022-10-16T03:02:05;98592.78;;;18.07;76.48
27144;BME280;14672;50.250;8.312;2022-10-16T03:04:30;98596.41;;;18.02;72.07
27144;BME280;14672;50.250;8.312;2022-10-16T03:06:56;98571.06;;;18.06;70.82
27144;BME280;14672;50.250;8.312;2022-10-16T03:09:22;98579.91;;;17.97;70.43
27144;BME280;14672;50.250;8.312;2022-10-16T03:11:47;98577.06;;;18.02;70.01
27144;BME280;14672;50.250;8.312;2022-10-16T03:14:13;98575.47;;;17.96;71.72
27144;BME280;14672;50.250;8.312;2022-10-16T03:16:39;98574.16;;;17.91;71.76
27144;BME280;14672;50.250;8.312;2022-10-16T03:19:05;98571.22;;;17.80;73.09
27144;BME280;14672;50.250;8.312;2022-10-16T03:21:30;98573.31;;;17.79;73.02
27144;BME280;14672;50.250;8.312;2022-10-16T03:23:56;98573.84;;;17.78;72.76
27144;BME280;14672;50.250;8.312;2022-10-16T03:26:22;98571.47;;;17.71;73.97
27144;BME280;14672;50.250;8.312;2022-10-16T03:28:47;98568.84;;;17.67;73.95
27144;BME280;14672;50.250;8.312;2022-10-16T03:31:13;98572.47;;;17.68;73.99
27144;BME280;14672;50.250;8.312;2022-10-16T03:33:39;98574.03;;;17.69;73.21
27144;BME280;14672;50.250;8.312;2022-10-16T03:36:05;98570.91;;;17.67;73.75
27144;BME280;14672;50.250;8.312;2022-10-16T03:38:30;98568.03;;;17.67;73.93
27144;BME280;14672;50.250;8.312;2022-10-16T03:40:56;98560.47;;;17.69;73.77
27144;BME280;14672;50.250;8.312;2022-10-16T03:43:22;98557.06;;;17.65;74.19
27144;BME280;14672;50.250;8.312;2022-10-16T03:45:49;98571.16;;;17.63;74.48
27144;BME280;14672;50.250;8.312;2022-10-16T03:48:15;98561.50;;;17.66;74.05
27144;BME280;14672;50.250;8.312;2022-10-16T03:50:40;98577.16;;;17.65;74.12
27144;BME280;14672;50.250;8.312;2022-10-16T03:53:06;98582.13;;;17.65;74.21
27144;BME280;14672;50.250;8.312;2022-10-16T03:55:32;98577.94;;;17.66;74.38
27144;BME280;14672;50.250;8.312;2022-10-16T03:57:58;98581.56;;;17.61;74.76
27144;BME280;14672;50.250;8.312;2022-10-16T04:00:23;98581.81;;;17.57;74.78
27144;BME280;14672;50.250;8.312;2022-10-16T04:02:49;98582.59;;;17.58;75.01
27144;BME280;14672;50.250;8.312;2022-10-16T04:05:15;98574.25;;;17.60;75.04
27144;BME280;14672;50.250;8.312;2022-10-16T04:07:40;98583.16;;;17.62;76.08
27144;BME280;14672;50.250;8.312;2022-10-16T04:10:07;98586.81;;;17.62;75.90
27144;BME280;14672;50.250;8.312;2022-10-16T04:12:32;98590.72;;;17.59;76.33
27144;BME280;14672;50.250;8.312;2022-10-16T04:14:58;98581.81;;;17.57;76.38
27144;BME280;14672;50.250;8.312;2022-10-16T04:17:24;98591.28;;;17.63;76.62
27144;BME280;14672;50.250;8.312;2022-10-16T04:19:50;98582.38;;;17.61;76.65
27144;BME280;14672;50.250;8.312;2022-10-16T04:22:15;98587.63;;;17.68;77.20
27144;BME280;14672;50.250;8.312;2022-10-16T04:24:41;98583.22;;;17.73;76.82
27144;BME280;14672;50.250;8.312;2022-10-16T04:27:07;98595.78;;;17.75;76.19
27144;BME280;14672;50.250;8.312;2022-10-16T04:29:32;98595.00;;;17.80;76.67
27144;BME280;14672;50.250;8.312;2022-10-16T04:31:58;98592.41;;;17.82;76.66
27144;BME280;14672;50.250;8.312;2022-10-16T04:34:24;98591.38;;;17.86;76.39
27144;BME280;14672;50.250;8.312;2022-10-16T04:36:49;98594.50;;;17.88;76.70
27144;BME280;14672;50.250;8.312;2022-10-16T04:39:16;98590.03;;;17.81;76.60
27144;BME280;14672;50.250;8.312;2022-10-16T04:41:42;98602.56;;;17.78;76.59
27144;BME280;14672;50.250;8.312;2022-10-16T04:44:08;98601.81;;;17.89;76.28
27144;BME280;14672;50.250;8.312;2022-10-16T04:46:34;98605.25;;;17.87;75.96
27144;BME280;14672;50.250;8.312;2022-10-16T04:49:00;98603.41;;;17.90;75.87
27144;BME280;14672;50.250;8.312;2022-10-16T04:51:25;98604.44;;;17.87;75.75
27144;BME280;14672;50.250;8.312;2022-10-16T04:53:53;98605.00;;;17.91;75.50
27144;BME280;14672;50.250;8.312;2022-10-16T04:56:20;98612.56;;;17.94;75.20
27144;BME280;14672;50.250;8.312;2022-10-16T04:58:47;98615.94;;;17.92;75.76
27144;BME280;14672;50.250;8.312;2022-10-16T05:01:13;98624.56;;;17.92;75.78
27144;BME280;14672;50.250;8.312;2022-10-16T05:03:39;98618.88;;;17.98;76.33
27144;BME280;14672;50.250;8.312;2022-10-16T05:06:06;98621.44;;;17.96;75.97
27144;BME280;14672;50.250;8.312;2022-10-16T05:08:33;98616.25;;;17.94;75.89
27144;BME280;14672;50.250;8.312;2022-10-16T05:10:58;98611.78;;;17.93;76.11
27144;BME280;14672;50.250;8.312;2022-10-16T05:13:25;98618.31;;;17.94;76.37
27144;BME280;14672;50.250;8.312;2022-10-16T05:15:51;98615.94;;;17.92;76.78
27144;BME280;14672;50.250;8.312;2022-10-16T05:18:17;98620.16;;;17.97;76.80
27144;BME280;14672;50.250;8.312;2022-10-16T05:20:43;98623.28;;;17.93;76.61
27144;BME280;14672;50.250;8.312;2022-10-16T05:23:08;98603.19;;;17.99;76.64
27144;BME280;14672;50.250;8.312;2022-10-16T05:25:36;98620.94;;;17.97;77.28
27144;BME280;14672;50.250;8.312;2022-10-16T05:28:02;98614.94;;;18.01;77.16
27144;BME280;14672;50.250;8.312;2022-10-16T05:30:28;98614.41;;;17.97;77.31
27144;BME280;14672;50.250;8.312;2022-10-16T05:32:54;98614.16;;;17.95;76.78
27144;BME280;14672;50.250;8.312;2022-10-16T05:35:21;98629.56;;;17.97;76.93
27144;BME280;14672;50.250;8.312;2022-10-16T05:37:47;98610.75;;;17.91;77.69
27144;BME280;14672;50.250;8.312;2022-10-16T05:40:14;98622.00;;;18.00;76.70
27144;BME280;14672;50.250;8.312;2022-10-16T05:42:40;98631.41;;;18.00;76.80
27144;BME280;14672;50.250;8.312;2022-10-16T05:45:09;98618.13;;;18.03;76.77
27144;BME280;14672;50.250;8.312;2022-10-16T05:47:35;98617.81;;;18.01;76.53
27144;BME280;14672;50.250;8.312;2022-10-16T05:50:01;98625.94;;;18.08;76.36
27144;BME280;14672;50.250;8.312;2022-10-16T05:52:27;98637.19;;;18.06;76.98
27144;BME280;14672;50.250;8.312;2022-10-16T05:54:53;98641.66;;;18.07;76.66
27144;BME280;14672;50.250;8.312;2022-10-16T05:57:18;98645.81;;;18.06;76.70
27144;BME280;14672;50.250;8.312;2022-10-16T05:59:44;98651.81;;;18.08;76.55
27144;BME280;14672;50.250;8.312;2022-10-16T06:02:13;98647.41;;;18.07;76.24
27144;BME280;14672;50.250;8.312;2022-10-16T06:04:39;98646.34;;;18.10;76.04
27144;BME280;14672;50.250;8.312;2022-10-16T06:07:05;98641.66;;;18.12;76.30
27144;BME280;14672;50.250;8.312;2022-10-16T06:09:31;98652.13;;;18.10;76.86
27144;BME280;14672;50.250;8.312;2022-10-16T06:11:56;98650.03;;;18.16;75.89
27144;BME280;14672;50.250;8.312;2022-10-16T06:14:22;98654.50;;;18.17;76.22
27144;BME280;14672;50.250;8.312;2022-10-16T06:16:48;98658.66;;;18.16;76.23
27144;BME280;14672;50.250;8.312;2022-10-16T06:19:14;98654.50;;;18.17;76.37
27144;BME280;14672;50.250;8.312;2022-10-16T06:21:41;98649.78;;;18.19;76.32
27144;BME280;14672;50.250;8.312;2022-10-16T06:24:08;98656.31;;;18.20;76.13
27144;BME280;14672;50.250;8.312;2022-10-16T06:26:34;98663.41;;;18.19;76.42
27144;BME280;14672;50.250;8.312;2022-10-16T06:29:00;98664.69;;;18.18;76.40
27144;BME280;14672;50.250;8.312;2022-10-16T06:31:27;98661.53;;;18.16;76.29
27144;BME280;14672;50.250;8.312;2022-10-16T06:33:55;98660.28;;;18.22;76.31
27144;BME280;14672;50.250;8.312;2022-10-16T06:36:22;98656.88;;;18.24;76.51
27144;BME280;14672;50.250;8.312;2022-10-16T06:38:48;98653.72;;;18.22;76.97
27144;BME280;14672;50.250;8.312;2022-10-16T06:41:17;98648.53;;;18.26;76.35
27144;BME280;14672;50.250;8.312;2022-10-16T06:43:44;98651.66;;;18.28;76.27
27144;BME280;14672;50.250;8.312;2022-10-16T06:46:17;98658.72;;;18.27;76.78
27144;BME280;14672;50.250;8.312;2022-10-16T06:48:43;98659.00;;;18.29;76.58
27144;BME280;14672;50.250;8.312;2022-10-16T06:51:18;98668.16;;;18.33;76.19
27144;BME280;14672;50.250;8.312;2022-10-16T06:53:54;98678.13;;;18.38;76.39
27144;BME280;14672;50.250;8.312;2022-10-16T06:56:27;98691.19;;;18.39;76.50
27144;BME280;14672;50.250;8.312;2022-10-16T06:58:54;98694.88;;;18.39;76.44
27144;BME280;14672;50.250;8.312;2022-10-16T07:01:23;98698.75;;;18.36;76.78
27144;BME280;14672;50.250;8.312;2022-10-16T07:03:50;98702.41;;;18.37;77.04
27144;BME280;14672;50.250;8.312;2022-10-16T07:06:18;98713.41;;;18.38;76.57
27144;BME280;14672;50.250;8.312;2022-10-16T07:08:47;98710.00;;;18.40;76.86
27144;BME280;14672;50.250;8.312;2022-10-16T07:11:17;98707.66;;;18.38;76.97
27144;BME280;14672;50.250;8.312;2022-10-16T07:13:45;98719.44;;;18.40;77.07
27144;BME280;14672;50.250;8.312;2022-10-16T07:16:24;98721.78;;;18.42;77.39
27144;BME280;14672;50.250;8.312;2022-10-16T07:18:50;98745.06;;;18.44;76.87
27144;BME280;14672;50.250;8.312;2022-10-16T07:21:19;98735.38;;;18.41;76.68
27144;BME280;14672;50.250;8.312;2022-10-16T07:23:52;98740.09;;;18.44;76.68
27144;BME280;14672;50.250;8.312;2022-10-16T07:26:18;98742.47;;;18.46;76.58
27144;BME280;14672;50.250;8.312;2022-10-16T07:28:44;98755.28;;;18.45;76.71
27144;BME280;14672;50.250;8.312;2022-10-16T07:31:12;98760.78;;;18.48;76.90
27144;BME280;14672;50.250;8.312;2022-10-16T07:33:41;98762.06;;;18.47;76.88
27144;BME280;14672;50.250;8.312;2022-10-16T07:36:14;98768.88;;;18.44;77.59
27144;BME280;14672;50.250;8.312;2022-10-16T07:38:40;98781.97;;;18.45;77.27
27144;BME280;14672;50.250;8.312;2022-10-16T07:41:18;98773.59;;;18.47;77.33
27144;BME280;14672;50.250;8.312;2022-10-16T07:43:50;98776.75;;;18.49;76.72
27144;BME280;14672;50.250;8.312;2022-10-16T07:46:17;98775.97;;;18.49;76.77
27144;BME280;14672;50.250;8.312;2022-10-16T07:48:43;98790.63;;;18.51;76.81
27144;BME280;14672;50.250;8.312;2022-10-16T07:51:17;98788.50;;;18.51;76.91
27144;BME280;14672;50.250;8.312;2022-10-16T07:53:43;98797.69;;;18.50;76.92
27144;BME280;14672;50.250;8.312;2022-10-16T07:56:09;98801.63;;;18.52;76.46
27144;BME280;14672;50.250;8.312;2022-10-16T07:58:36;98806.88;;;18.54;76.40
27144;BME280;14672;50.250;8.312;2022-10-16T08:01:08;98799.31;;;18.56;76.77
27144;BME280;14672;50.250;8.312;2022-10-16T08:03:34;98796.72;;;18.58;76.83
27144;BME280;14672;50.250;8.312;2022-10-16T08:06:02;98811.34;;;18.60;76.71
27144;BME280;14672;50.250;8.312;2022-10-16T08:08:29;98818.44;;;18.65;76.76
27144;BME280;14672;50.250;8.312;2022-10-16T08:10:55;98816.34;;;18.65;76.56
27144;BME280;14672;50.250;8.312;2022-10-16T08:13:21;98827.88;;;18.65;77.13
27144;BME280;14672;50.250;8.312;2022-10-16T08:15:47;98827.38;;;18.67;77.06
27144;BME280;14672;50.250;8.312;2022-10-16T08:18:15;98833.13;;;18.67;77.58
27144;BME280;14672;50.250;8.312;2022-10-16T08:20:42;98832.09;;;18.70;77.60
27144;BME280;14672;50.250;8.312;2022-10-16T08:23:11;98836.00;;;18.72;77.53
27144;BME280;14672;50.250;8.312;2022-10-16T08:25:38;98834.97;;;18.75;77.17
27144;BME280;14672;50.250;8.312;2022-10-16T08:28:08;98842.84;;;18.75;77.33
27144;BME280;14672;50.250;8.312;2022-10-16T08:30:35;98847.03;;;18.80;77.41
27144;BME280;14672;50.250;8.312;2022-10-16T08:33:01;98848.34;;;18.79;77.42
27144;BME280;14672;50.250;8.312;2022-10-16T08:35:28;98857.53;;;18.83;77.23
27144;BME280;14672;50.250;8.312;2022-10-16T08:37:54;98869.31;;;18.85;77.15
27144;BME280;14672;50.250;8.312;2022-10-16T08:43:26;98873.78;;;18.91;77.39
27144;BME280;14672;50.250;8.312;2022-10-16T08:48:56;98871.22;;;18.99;76.76
27144;BME280;14672;50.250;8.312;2022-10-16T08:51:28;98869.63;;;18.98;77.06
27144;BME280;14672;50.250;8.312;2022-10-16T08:54:14;98867.56;;;19.04;77.50
27144;BME280;14672;50.250;8.312;2022-10-16T08:56:43;98855.84;;;19.18;77.40
27144;BME280;14672;50.250;8.312;2022-10-16T08:59:10;98874.19;;;19.21;78.01
27144;BME280;14672;50.250;8.312;2022-10-16T09:01:44;98866.88;;;19.26;77.74
27144;BME280;14672;50.250;8.312;2022-10-16T09:18:44;98894.22;;;19.52;76.14
27144;BME280;14672;50.250;8.312;2022-10-16T09:21:29;98894.25;;;19.58;76.69
27144;BME280;14672;50.250;8.312;2022-10-16T09:24:17;98894.50;;;19.60;76.40
27144;BME280;14672;50.250;8.312;2022-10-16T09:26:45;98899.50;;;19.65;76.31
27144;BME280;14672;50.250;8.312;2022-10-16T09:29:14;98914.41;;;19.63;75.87
27144;BME280;14672;50.250;8.312;2022-10-16T09:31:41;98918.34;;;19.60;76.07
27144;BME280;14672;50.250;8.312;2022-10-16T09:34:24;98915.19;;;19.64;75.92
27144;BME280;14672;50.250;8.312;2022-10-16T09:36:52;98915.19;;;19.64;75.27
27144;BME280;14672;50.250;8.312;2022-10-16T09:39:18;98908.38;;;19.67;75.46
27144;BME280;14672;50.250;8.312;2022-10-16T09:41:45;98911.56;;;19.75;75.62
27144;BME280;14672;50.250;8.312;2022-10-16T09:44:30;98924.16;;;19.83;74.92
27144;BME280;14672;50.250;8.312;2022-10-16T09:47:28;98926.53;;;19.84;74.68
27144;BME280;14672;50.250;8.312;2022-10-16T09:49:58;98923.38;;;19.77;74.37
27144;BME280;14672;50.250;8.312;2022-10-16T09:52:28;98926.28;;;19.82;74.97
27144;BME280;14672;50.250;8.312;2022-10-16T09:55:00;98926.00;;;19.86;74.64
27144;BME280;14672;50.250;8.312;2022-10-16T09:57:27;98919.97;;;19.95;74.29
27144;BME280;14672;50.250;8.312;2022-10-16T09:59:55;98915.81;;;19.90;73.96
27144;BME280;14672;50.250;8.312;2022-10-16T10:02:36;98919.75;;;20.04;74.86
27144;BME280;14672;50.250;8.312;2022-10-16T10:05:06;98916.59;;;20.07;74.58
27144;BME280;14672;50.250;8.312;2022-10-16T10:07:44;98906.13;;;20.10;74.07
27144;BME280;14672;50.250;8.312;2022-10-16T10:10:31;98911.63;;;20.13;74.08
27144;BME280;14672;50.250;8.312;2022-10-16T10:12:58;98909.25;;;20.23;74.27
27144;BME280;14672;50.250;8.312;2022-10-16T10:15:24;98916.34;;;20.22;74.95
27144;BME280;14672;50.250;8.312;2022-10-16T10:17:55;98925.03;;;20.33;74.57
27144;BME280;14672;50.250;8.312;2022-10-16T10:20:35;98915.06;;;20.45;74.41
27144;BME280;14672;50.250;8.312;2022-10-16T10:23:29;98921.59;;;20.51;73.78
27144;BME280;14672;50.250;8.312;2022-10-16T10:26:20;98919.75;;;20.59;73.52
27144;BME280;14672;50.250;8.312;2022-10-16T10:29:13;98910.78;;;21.02;72.29
27144;BME280;14672;50.250;8.312;2022-10-16T10:38:27;98916.25;;;21.11;69.65
27144;BME280;14672;50.250;8.312;2022-10-16T10:47:33;98908.13;;;21.04;69.44
27144;BME280;14672;50.250;8.312;2022-10-16T10:50:17;98902.84;;;21.08;69.11
27144;BME280;14672;50.250;8.312;2022-10-16T10:58:58;98896.34;;;21.65;69.59
27144;BME280;14672;50.250;8.312;2022-10-16T11:02:01;98902.91;;;21.66;68.59
27144;BME280;14672;50.250;8.312;2022-10-16T11:07:34;98896.84;;;21.64;68.80
27144;BME280;14672;50.250;8.312;2022-10-16T11:10:23;98898.97;;;21.63;69.36
27144;BME280;14672;50.250;8.312;2022-10-16T11:13:33;98890.06;;;21.55;67.89
27144;BME280;14672;50.250;8.312;2022-10-16T11:16:03;98892.66;;;21.59;67.60
27144;BME280;14672;50.250;8.312;2022-10-16T11:21:26;98891.06;;;21.64;68.60
27144;BME280;14672;50.250;8.312;2022-10-16T11:24:14;98884.75;;;21.65;69.38
27144;BME280;14672;50.250;8.312;2022-10-16T11:26:43;98880.81;;;21.68;68.23
27144;BME280;14672;50.250;8.312;2022-10-16T11:29:24;98881.25;;;21.78;68.20
27144;BME280;14672;50.250;8.312;2022-10-16T11:31:59;98886.28;;;21.72;67.88
27144;BME280;14672;50.250;8.312;2022-10-16T11:34:38;98888.38;;;21.77;67.57
27144;BME280;14672;50.250;8.312;2022-10-16T11:37:27;98883.13;;;21.75;67.64
27144;BME280;14672;50.250;8.312;2022-10-16T11:40:23;98880.75;;;21.74;67.88
27144;BME280;14672;50.250;8.312;2022-10-16T11:43:23;98892.78;;;21.83;67.15
27144;BME280;14672;50.250;8.312;2022-10-16T11:45:55;98876.47;;;21.91;67.23
27144;BME280;14672;50.250;8.312;2022-10-16T11:48:41;98880.38;;;21.94;67.79
27144;BME280;14672;50.250;8.312;2022-10-16T11:51:43;98875.41;;;21.89;69.01
27144;BME280;14672;50.250;8.312;2022-10-16T11:56:59;98899.16;;;21.76;69.27
27144;BME280;14672;50.250;8.312;2022-10-16T11:59:57;98899.44;;;21.73;69.35
27144;BME280;14672;50.250;8.312;2022-10-16T12:05:27;98900.00;;;21.66;70.82
27144;BME280;14672;50.250;8.312;2022-10-16T12:08:13;98890.97;;;21.80;70.11
27144;BME280;14672;50.250;8.312;2022-10-16T12:10:43;98895.69;;;21.83;70.00
27144;BME280;14672;50.250;8.312;2022-10-16T12:13:34;98893.81;;;21.86;69.21
27144;BME280;14672;50.250;8.312;2022-10-16T12:18:44;98895.69;;;21.78;68.03
27144;BME280;14672;50.250;8.312;2022-10-16T12:21:13;98899.38;;;21.84;67.30
27144;BME280;14672;50.250;8.312;2022-10-16T12:23:54;98887.22;;;21.91;67.34
27144;BME280;14672;50.250;8.312;2022-10-16T12:26:37;98904.06;;;21.92;67.18
27144;BME280;14672;50.250;8.312;2022-10-16T12:29:32;98913.00;;;21.89;67.59
27144;BME280;14672;50.250;8.312;2022-10-16T12:31:59;98908.13;;;21.73;67.47
27144;BME280;14672;50.250;8.312;2022-10-16T12:34:44;98916.94;;;21.86;67.53
27144;BME280;14672;50.250;8.312;2022-10-16T12:37:28;98915.94;;;21.78;67.54
27144;BME280;14672;50.250;8.312;2022-10-16T12:39:55;98920.72;;;21.75;67.11
27144;BME280;14672;50.250;8.312;2022-10-16T12:44:55;98915.72;;;21.76;66.71
27144;BME280;14672;50.250;8.312;2022-10-16T12:47:37;98923.44;;;22.03;66.29
27144;BME280;14672;50.250;8.312;2022-10-16T12:52:50;98928.03;;;21.82;66.86
27144;BME280;14672;50.250;8.312;2022-10-16T12:55:19;98933.31;;;22.24;66.17
27144;BME280;14672;50.250;8.312;2022-10-16T12:58:19;98940.59;;;22.36;66.18
27144;BME280;14672;50.250;8.312;2022-10-16T13:01:24;98925.63;;;22.32;66.39
27144;BME280;14672;50.250;8.312;2022-10-16T13:24:22;98928.47;;;23.83;60.44
27144;BME280;14672;50.250;8.312;2022-10-16T13:29:20;98925.88;;;23.99;60.32
27144;BME280;14672;50.250;8.312;2022-10-16T13:31:46;98921.69;;;24.13;59.78
27144;BME280;14672;50.250;8.312;2022-10-16T13:34:22;98920.50;;;24.40;59.42
27144;BME280;14672;50.250;8.312;2022-10-16T13:36:51;98917.56;;;24.08;60.45
27144;BME280;14672;50.250;8.312;2022-10-16T13:39:27;98926.66;;;23.99;60.45
27144;BME280;14672;50.250;8.312;2022-10-16T13:42:06;98920.72;;;23.92;60.66
27144;BME280;14672;50.250;8.312;2022-10-16T13:44:41;98919.63;;;23.76;60.36
27144;BME280;14672;50.250;8.312;2022-10-16T13:50:12;98921.94;;;23.77;61.37
27144;BME280;14672;50.250;8.312;2022-10-16T13:52:39;98918.09;;;23.69;61.34
27144;BME280;14672;50.250;8.312;2022-10-16T13:55:17;98925.16;;;23.74;61.59
27144;BME280;14672;50.250;8.312;2022-10-16T13:57:44;98920.63;;;23.78;61.34
27144;BME280;14672;50.250;8.312;2022-10-16T14:00:26;98920.22;;;23.69;61.90
27144;BME280;14672;50.250;8.312;2022-10-16T14:03:13;98924.78;;;23.64;62.18
27144;BME280;14672;50.250;8.312;2022-10-16T14:05:53;98913.16;;;23.46;62.42
27144;BME280;14672;50.250;8.312;2022-10-16T14:08:20;98919.75;;;23.46;61.54
27144;BME280;14672;50.250;8.312;2022-10-16T14:10:52;98922.69;;;23.40;62.47
27144;BME280;14672;50.250;8.312;2022-10-16T14:13:34;98925.16;;;23.31;62.71
27144;BME280;14672;50.250;8.312;2022-10-16T14:16:08;98926.81;;;23.26;62.77
27144;BME280;14672;50.250;8.312;2022-10-16T14:18:36;98925.94;;;23.13;62.89
27144;BME280;14672;50.250;8.312;2022-10-16T14:21:06;98931.94;;;23.15;63.27
27144;BME280;14672;50.250;8.312;2022-10-16T14:23:38;98931.66;;;23.37;62.62
27144;BME280;14672;50.250;8.312;2022-10-16T14:28:37;98925.47;;;23.27;62.50
27144;BME280;14672;50.250;8.312;2022-10-16T14:31:41;98920.13;;;23.13;63.02
27144;BME280;14672;50.250;8.312;2022-10-16T14:34:31;98926.28;;;23.28;62.96
27144;BME280;14672;50.250;8.312;2022-10-16T14:37:23;98927.94;;;23.18;63.63
27144;BME280;14672;50.250;8.312;2022-10-16T14:39:51;98928.75;;;23.18;63.37
27144;BME280;14672;50.250;8.312;2022-10-16T14:42:20;98929.22;;;22.98;64.12
27144;BME280;14672;50.250;8.312;2022-10-16T14:44:50;98929.66;;;23.08;63.69
27144;BME280;14672;50.250;8.312;2022-10-16T14:47:21;98924.75;;;22.97;64.40
27144;BME280;14672;50.250;8.312;2022-10-16T14:49:51;98926.34;;;22.98;64.60
27144;BME280;14672;50.250;8.312;2022-10-16T14:52:17;98920.53;;;23.22;64.23
27144;BME280;14672;50.250;8.312;2022-10-16T14:54:43;98925.47;;;23.52;63.18
27144;BME280;14672;50.250;8.312;2022-10-16T14:57:18;98930.03;;;23.41;63.69
27144;BME280;14672;50.250;8.312;2022-10-16T14:59:46;98935.84;;;23.41;63.17
27144;BME280;14672;50.250;8.312;2022-10-16T15:02:31;98929.94;;;23.53;62.97
27144;BME280;14672;50.250;8.312;2022-10-16T15:04:57;98938.03;;;23.35;63.74
27144;BME280;14672;50.250;8.312;2022-10-16T15:07:27;98929.97;;;23.28;63.67
27144;BME280;14672;50.250;8.312;2022-10-16T15:09:52;98934.72;;;23.26;63.56